Time;durP1;ratioP1;P1;durP2;ratioP2;P2;SDS_P1;SDS_P2;PMS_P1;PMS_P2;Temp;Humidity;BMP_temperature;BMP_pressure;BME280_temperature;BME280_humidity;BME280_pressure;Samples;Min_cycle;Max_cycle;Signal;HPM_P1;HPM_P2
2022/12/24 00:06:05;;;;;;;28.77;18.07;;;;;;;9.86;93.78;98119.04;4203513;83;28487;-84
2022/12/24 00:12:09;;;;;;;31.57;18.05;;;;;;;9.89;94.18;98122.59;4180941;84;28537;-84
2022/12/24 00:18:10;;;;;;;30.27;18.65;;;;;;;10.09;95.88;98128.45;4183174;84;28525;-82
2022/12/24 00:24:11;;;;;;;31.97;19.02;;;;;;;9.93;95.34;98125.56;4193308;84;28569;-84
2022/12/24 00:30:12;;;;;;;31.12;17.62;;;;;;;9.76;96.28;98121.59;4192588;83;28551;-84
2022/12/24 00:36:14;;;;;;;28.45;17.12;;;;;;;9.75;95.68;98109.23;4169581;83;28559;-76
2022/12/24 00:42:15;;;;;;;29.45;17.37;;;;;;;9.61;92.63;98104.75;4170409;83;28542;-77
2022/12/24 00:48:16;;;;;;;27.55;16.23;;;;;;;9.68;91.32;98085.78;4159748;84;28510;-77
2022/12/24 00:54:17;;;;;;;25.95;16.05;;;;;;;9.62;93.02;98074.16;4182634;84;28591;-77
2022/12/24 01:00:19;;;;;;;28.25;16.05;;;;;;;9.82;91.66;98079.52;4109828;84;28562;-76
2022/12/24 01:06:20;;;;;;;26.12;15.60;;;;;;;9.72;92.83;98066.79;4074213;86;28556;-76
2022/12/24 01:12:22;;;;;;;27.00;15.88;;;;;;;9.62;94.57;98048.67;4099167;85;28544;-77
2022/12/24 01:18:25;;;;;;;26.35;15.72;;;;;;;9.55;95.20;98050.75;4082108;85;28541;-77
2022/12/24 01:24:28;;;;;;;24.20;14.93;;;;;;;9.48;95.93;98038.86;4083351;85;28630;-77
2022/12/24 01:30:29;;;;;;;24.15;15.15;;;;;;;9.49;93.40;98028.41;4116001;85;28517;-77
2022/12/24 01:36:30;;;;;;;22.93;14.05;;;;;;;9.27;92.88;98013.11;4105514;85;28549;-78
2022/12/24 01:48:55;;;;;;;10.68;5.85;;;;;;;9.66;100.00;98016.27;4124502;85;28545;-79
2022/12/24 01:55:02;;;;;;;6.47;4.05;;;;;;;10.02;100.00;98011.28;4109533;85;28600;-76
2022/12/24 02:01:04;;;;;;;7.80;4.20;;;;;;;10.32;100.00;98013.20;4068009;85;28582;-77
2022/12/24 02:07:05;;;;;;;6.33;3.30;;;;;;;10.44;100.00;98024.63;3995028;86;28565;-76
2022/12/24 02:13:06;;;;;;;5.90;3.20;;;;;;;10.57;100.00;98018.02;4150166;84;28580;-76
2022/12/24 02:19:17;;;;;;;5.08;3.08;;;;;;;10.71;100.00;98008.96;4162110;84;28569;-76
2022/12/24 02:25:33;;;;;;;6.08;3.60;;;;;;;10.84;100.00;98002.89;4164611;84;28600;-76
2022/12/24 02:31:43;;;;;;;10.00;5.87;;;;;;;10.67;100.00;98010.56;4157950;84;28575;-77
2022/12/24 02:37:47;;;;;;;11.48;7.12;;;;;;;10.40;100.00;98014.05;4157880;84;28534;-76
2022/12/24 02:43:49;;;;;;;12.53;7.37;;;;;;;10.48;100.00;98007.98;4187941;84;28541;-76
2022/12/24 02:49:50;;;;;;;10.48;6.65;;;;;;;10.49;100.00;98003.70;4133066;84;28558;-76
2022/12/24 02:56:16;;;;;;;14.73;8.10;;;;;;;10.33;100.00;98002.17;4163186;84;28538;-76
2022/12/24 03:02:36;;;;;;;12.60;7.60;;;;;;;10.41;100.00;98004.13;4110264;84;28520;-76
2022/12/24 03:09:03;;;;;;;11.63;7.17;;;;;;;10.45;100.00;98007.95;4140592;84;28636;-76
2022/12/24 03:15:06;;;;;;;8.03;5.05;;;;;;;10.49;100.00;98006.91;4174334;83;28534;-76
2022/12/24 03:21:28;;;;;;;10.58;6.37;;;;;;;10.64;100.00;98004.87;4189146;83;28548;-76
2022/12/24 03:27:31;;;;;;;10.35;6.58;;;;;;;10.54;100.00;98013.69;4182359;83;28522;-76
2022/12/24 03:33:32;;;;;;;12.63;8.13;;;;;;;10.62;100.00;98009.19;4168884;83;28530;-76
2022/12/24 03:39:33;;;;;;;15.05;9.05;;;;;;;10.56;100.00;98014.23;4169895;84;28569;-76
2022/12/24 03:45:35;;;;;;;15.13;9.13;;;;;;;10.46;100.00;98025.69;4205419;83;28487;-77
2022/12/24 03:51:36;;;;;;;22.20;12.80;;;;;;;10.46;100.00;98026.52;4162265;84;28511;-78
2022/12/24 03:57:37;;;;;;;21.55;12.58;;;;;;;10.51;100.00;98015.00;4121183;84;28521;-78
2022/12/24 04:03:39;;;;;;;15.70;9.60;;;;;;;10.53;100.00;98024.16;4145955;84;28642;-78
2022/12/24 04:09:40;;;;;;;17.73;11.25;;;;;;;10.59;100.00;98024.46;4213055;83;28639;-79
2022/12/24 04:15:41;;;;;;;20.32;12.43;;;;;;;10.44;100.00;98031.86;4137759;84;28530;-78
2022/12/24 04:21:42;;;;;;;21.07;12.60;;;;;;;10.12;100.00;98033.42;4152401;84;28526;-74
2022/12/24 04:27:43;;;;;;;17.35;10.40;;;;;;;10.37;100.00;98033.93;4149387;83;28584;-75
2022/12/24 04:33:45;;;;;;;29.45;18.50;;;;;;;10.50;100.00;98042.12;4168111;84;28521;-73
2022/12/24 04:39:46;;;;;;;34.80;18.92;;;;;;;10.26;100.00;98046.44;4143495;84;28563;-73
2022/12/24 04:45:47;;;;;;;31.45;17.70;;;;;;;10.44;100.00;98040.74;4139707;84;28512;-73
2022/12/24 04:51:48;;;;;;;28.35;15.95;;;;;;;10.31;100.00;98049.98;4138984;84;28549;-75
2022/12/24 04:57:49;;;;;;;24.80;14.75;;;;;;;10.04;100.00;98038.69;4132257;84;28555;-73
2022/12/24 05:03:51;;;;;;;24.85;15.03;;;;;;;9.97;100.00;98034.58;4134690;84;28577;-73
2022/12/24 05:09:52;;;;;;;23.47;13.95;;;;;;;9.86;100.00;98043.07;4138566;84;28544;-73
2022/12/24 05:15:53;;;;;;;19.82;12.63;;;;;;;9.79;99.73;98045.95;4151581;83;28576;-74
2022/12/24 05:28:14;;;;;;;18.77;11.35;;;;;;;9.61;100.00;98050.56;4139350;84;28580;-74
2022/12/24 05:34:16;;;;;;;21.07;12.50;;;;;;;9.74;100.00;98059.30;4139624;84;28546;-74
2022/12/24 05:40:17;;;;;;;22.60;12.55;;;;;;;9.78;100.00;98059.61;4165983;83;28569;-74
2022/12/24 05:46:19;;;;;;;20.27;11.65;;;;;;;9.74;100.00;98059.30;4139816;84;28493;-74
2022/12/24 05:52:20;;;;;;;20.32;11.30;;;;;;;9.56;100.00;98053.70;4157127;84;28576;-74
2022/12/24 05:58:21;;;;;;;18.62;10.43;;;;;;;9.81;100.00;98059.10;4176475;84;28555;-74
2022/12/24 06:04:23;;;;;;;18.75;10.82;;;;;;;9.59;100.00;98060.73;4146936;84;28633;-74
2022/12/24 06:10:24;;;;;;;17.23;10.18;;;;;;;9.95;100.00;98068.94;4140957;85;28580;-74
2022/12/24 06:16:25;;;;;;;16.95;10.55;;;;;;;9.82;100.00;98066.91;4144356;84;28519;-74
2022/12/24 06:22:26;;;;;;;16.48;9.38;;;;;;;9.79;100.00;98076.82;4158337;83;28560;-74
2022/12/24 06:28:30;;;;;;;18.07;10.50;;;;;;;9.77;100.00;98084.29;4157142;84;28555;-75
2022/12/24 06:34:31;;;;;;;18.17;10.43;;;;;;;10.00;100.00;98079.75;4164838;84;28534;-74
2022/12/24 06:40:32;;;;;;;15.68;9.78;;;;;;;9.81;100.00;98076.55;4169794;83;28482;-74
2022/12/24 06:46:33;;;;;;;17.55;10.23;;;;;;;10.18;100.00;98098.20;4194082;84;28587;-75
2022/12/24 06:52:34;;;;;;;13.95;9.25;;;;;;;10.24;100.00;98095.58;4186695;83;28538;-75
2022/12/24 06:58:35;;;;;;;18.32;10.65;;;;;;;10.25;100.00;98101.23;4142033;84;28529;-77
2022/12/24 07:04:37;;;;;;;17.30;10.60;;;;;;;10.37;100.00;98109.95;4141882;84;28583;-74
2022/12/24 07:10:38;;;;;;;17.15;10.93;;;;;;;10.39;100.00;98128.52;4130452;84;28576;-74
2022/12/24 07:16:39;;;;;;;18.27;10.35;;;;;;;10.56;100.00;98134.63;4158727;83;28546;-76
2022/12/24 07:22:40;;;;;;;18.30;11.35;;;;;;;10.58;100.00;98128.49;4182571;84;28514;-79
2022/12/24 07:28:42;;;;;;;17.25;10.35;;;;;;;10.65;100.00;98142.25;4156287;84;28535;-75
2022/12/24 07:34:43;;;;;;;15.53;9.63;;;;;;;11.11;100.00;98145.89;4167797;84;28584;-76
2022/12/24 07:40:44;;;;;;;16.35;10.32;;;;;;;10.90;100.00;98151.09;4167222;83;28560;-78
2022/12/24 07:46:45;;;;;;;13.65;9.40;;;;;;;10.99;100.00;98143.39;4187993;83;28571;-78
2022/12/24 07:52:46;;;;;;;14.98;9.58;;;;;;;11.00;100.00;98157.91;4196571;84;28537;-78
2022/12/24 07:58:52;;;;;;;12.35;8.95;;;;;;;11.10;100.00;98165.79;4159328;83;28572;-78
2022/12/24 08:04:52;;;;;;;14.47;9.50;;;;;;;11.15;100.00;98163.16;4164121;83;28619;-78
2022/12/24 08:10:57;;;;;;;12.10;9.10;;;;;;;11.10;100.00;98176.55;4197070;83;28599;-79
2022/12/24 08:16:58;;;;;;;17.52;11.03;;;;;;;11.40;100.00;98180.05;4203968;83;28574;-79
2022/12/24 08:23:01;;;;;;;16.20;10.78;;;;;;;11.36;100.00;98175.43;4221087;83;28580;-74
2022/12/24 08:29:03;;;;;;;19.85;12.78;;;;;;;11.51;100.00;98189.53;4206054;83;28578;-74
2022/12/24 08:35:04;;;;;;;17.70;11.78;;;;;;;11.68;100.00;98194.77;4195954;83;28566;-75
2022/12/24 08:41:06;;;;;;;14.38;9.65;;;;;;;12.15;100.00;98200.44;4176107;84;28636;-75
2022/12/24 08:47:07;;;;;;;13.40;8.40;;;;;;;12.41;100.00;98214.84;4196653;83;28608;-75
2022/12/24 08:53:09;;;;;;;12.53;7.97;;;;;;;12.42;100.00;98200.28;4190762;83;28542;-74
2022/12/24 08:59:11;;;;;;;11.48;7.12;;;;;;;12.50;100.00;98207.08;4203886;83;28522;-75
2022/12/24 09:05:14;;;;;;;11.40;7.03;;;;;;;13.00;99.70;98207.46;4167353;83;28570;-76
2022/12/24 09:11:19;;;;;;;11.48;6.10;;;;;;;13.30;99.25;98206.41;4145139;83;28558;-76
2022/12/24 09:17:20;;;;;;;10.43;5.15;;;;;;;13.39;97.71;98206.96;4168273;83;28530;-76
2022/12/24 09:23:21;;;;;;;8.38;4.30;;;;;;;13.65;94.57;98225.87;4168557;84;28521;-76
2022/12/24 09:29:22;;;;;;;6.33;3.98;;;;;;;13.56;95.21;98228.05;4148685;84;28539;-76
2022/12/24 09:35:23;;;;;;;8.38;3.98;;;;;;;13.31;95.77;98235.02;4164849;83;28567;-76
2022/12/24 09:41:51;;;;;;;8.95;4.17;;;;;;;13.20;96.51;98247.70;4152877;84;28563;-76
2022/12/24 09:47:57;;;;;;;6.80;3.77;;;;;;;13.24;94.43;98246.08;4202154;83;28935;-76
2022/12/24 09:54:08;;;;;;;6.20;3.37;;;;;;;13.31;93.46;98253.91;4166380;83;28554;-76
2022/12/24 10:00:19;;;;;;;6.50;2.85;;;;;;;13.10;94.59;98263.33;4159191;84;28521;-76
2022/12/24 10:06:36;;;;;;;4.90;2.65;;;;;;;13.21;93.82;98270.91;4155494;84;28555;-79
2022/12/24 10:12:53;;;;;;;5.37;2.72;;;;;;;13.28;93.03;98272.00;4164064;83;28522;-76
2022/12/24 10:19:09;;;;;;;6.30;2.65;;;;;;;13.24;93.41;98281.99;4157310;84;28510;-77
2022/12/24 10:25:15;;;;;;;;;;;;;;;13.73;89.27;98277.73;4170674;84;28569;-81
2022/12/24 10:31:18;;;;;;;7.73;2.60;;;;;;;13.79;85.90;98288.79;4153539;84;20531;-77
2022/12/24 10:37:23;;;;;;;5.30;2.37;;;;;;;13.82;84.74;98307.71;4148007;84;28529;-74
2022/12/24 10:43:25;;;;;;;5.70;2.50;;;;;;;13.77;84.09;98297.19;4140954;84;28484;-76
2022/12/24 10:49:30;;;;;;;6.50;2.65;;;;;;;13.61;83.41;98289.62;4198159;82;28522;-77
2022/12/24 10:55:31;;;;;;;5.67;2.45;;;;;;;13.52;83.45;98303.39;4160605;84;28478;-76
2022/12/24 11:01:45;;;;;;;5.60;2.67;;;;;;;13.79;81.87;98305.00;4176489;84;28560;-77
2022/12/24 11:07:50;;;;;;;4.33;2.22;;;;;;;13.51;80.97;98306.61;4173775;83;28497;-77
2022/12/24 11:13:55;;;;;;;6.00;2.62;;;;;;;13.30;82.87;98310.33;4152198;84;28487;-76
2022/12/24 11:19:59;;;;;;;5.67;2.60;;;;;;;13.77;80.57;98328.78;4172532;83;28471;-79
2022/12/24 11:26:03;;;;;;;8.68;2.87;;;;;;;13.62;80.92;98343.91;4147704;84;28584;-75
2022/12/24 11:32:16;;;;;;;6.20;2.77;;;;;;;13.46;82.46;98343.60;4167618;83;28622;-76
2022/12/24 11:38:24;;;;;;;7.70;3.27;;;;;;;13.53;82.29;98353.61;4166243;84;28506;-76
2022/12/24 11:44:28;;;;;;;6.95;2.70;;;;;;;13.47;83.89;98362.77;4162506;83;29122;-75
2022/12/24 11:50:34;;;;;;;5.78;2.67;;;;;;;13.59;83.45;98360.66;4193978;82;28578;-75
2022/12/24 11:56:47;;;;;;;7.37;3.20;;;;;;;13.48;82.64;98367.91;4151564;84;28554;-74
2022/12/24 12:02:50;;;;;;;7.45;2.77;;;;;;;13.56;80.67;98369.27;4156512;84;28582;-74
2022/12/24 12:09:16;;;;;;;7.53;3.52;;;;;;;13.18;87.59;98395.61;4166123;84;28590;-73
2022/12/24 12:15:55;;;;;;;11.27;4.00;;;;;;;-149.40;100.00;119126.13;4164464;84;28620;-72
2022/12/24 12:22:02;;;;;;;7.08;3.50;;;;;;;-149.40;100.00;98037.48;4157835;84;28584;-75
2022/12/24 12:28:26;;;;;;;10.63;3.90;;;;;;;-149.40;89.78;98429.02;4169769;83;28619;-76
2022/12/24 12:34:37;;;;;;;7.35;3.33;;;;;;;13.04;89.78;98429.02;4155047;84;28539;-76
2022/12/24 12:40:59;;;;;;;9.35;3.85;;;;;;;12.64;97.58;98473.81;4179325;84;28505;-77
2022/12/24 12:47:04;;;;;;;9.18;3.75;;;;;;;13.09;96.98;98478.42;4170837;84;28633;-79
2022/12/24 12:53:26;;;;;;;8.88;4.10;;;;;;;-149.40;98.28;98505.08;4148940;84;28565;-78
2022/12/24 13:00:18;;;;;;;9.23;3.85;;;;;;;-149.40;100.00;119126.13;4138884;84;28501;-78
2022/12/24 13:06:28;;;;;;;8.23;4.20;;;;;;;12.98;98.28;98505.08;4173629;83;28503;-82
2022/12/24 13:12:45;;;;;;;10.05;3.98;;;;;;;12.85;99.61;98543.27;4191243;84;28641;-87
2022/12/24 13:19:14;;;;;;;11.88;4.67;;;;;;;12.85;100.00;98555.41;4162636;85;28534;-87
2022/12/24 13:25:21;;;;;;;9.10;3.98;;;;;;;12.90;100.00;98567.05;4161096;85;28579;-77
2022/12/24 13:31:23;;;;;;;9.95;5.30;;;;;;;12.65;100.00;98573.88;4185405;84;28478;-79
2022/12/24 13:37:33;;;;;;;10.08;4.60;;;;;;;12.81;100.00;98586.96;4142852;84;28592;-78
2022/12/24 13:43:57;;;;;;;10.23;4.97;;;;;;;12.72;100.00;98603.33;4154176;83;28513;-84
2022/12/24 13:50:02;;;;;;;12.23;5.15;;;;;;;12.54;100.00;98613.41;4195576;83;28919;-84
2022/12/24 13:56:09;;;;;;;11.43;5.28;;;;;;;12.33;100.00;98627.73;4145591;84;28571;-84
2022/12/24 14:02:19;;;;;;;;;;;;;;;12.63;100.00;98631.31;4170922;84;28534;-84
2022/12/24 14:08:26;;;;;;;14.33;6.33;;;;;;;12.74;100.00;98636.25;4183741;84;20539;-83
2022/12/24 14:14:36;;;;;;;15.23;7.12;;;;;;;12.57;100.00;98657.13;4176848;83;28521;-84
2022/12/24 14:20:38;;;;;;;20.80;10.32;;;;;;;12.45;100.00;98676.97;4183854;84;28528;-84
2022/12/24 14:26:48;;;;;;;20.15;11.00;;;;;;;12.20;100.00;98685.02;4152737;84;28533;-83
2022/12/24 14:32:50;;;;;;;20.85;11.45;;;;;;;12.12;100.00;98689.48;4135103;84;28492;-83
2022/12/24 14:38:52;;;;;;;24.15;13.20;;;;;;;11.90;100.00;98696.98;4179992;84;28587;-81
2022/12/24 14:45:00;;;;;;;20.80;11.90;;;;;;;12.13;100.00;98698.67;4192869;83;28518;-84
2022/12/24 14:51:22;;;;;;;20.35;10.78;;;;;;;12.06;100.00;98707.47;4177228;84;28621;-83
2022/12/24 14:57:27;;;;;;;18.92;9.40;;;;;;;-96.37;100.00;119126.13;4182404;84;28526;-83
2022/12/24 15:03:31;;;;;;;18.57;9.07;;;;;;;11.80;100.00;98727.81;4164644;84;28629;-83
2022/12/24 15:09:33;;;;;;;16.62;8.30;;;;;;;11.94;100.00;98749.84;4182767;84;28461;-83
2022/12/24 15:15:34;;;;;;;16.07;7.45;;;;;;;11.94;100.00;98743.94;4183494;84;28529;-83
2022/12/24 15:21:40;;;;;;;20.08;8.45;;;;;;;11.77;100.00;98763.33;4177236;83;28497;-83
2022/12/24 15:27:40;;;;;;;18.23;8.28;;;;;;;11.86;100.00;98765.34;4193822;83;28592;-84
2022/12/24 15:33:47;;;;;;;19.77;10.38;;;;;;;11.80;100.00;98764.17;4164649;84;28548;-84
2022/12/24 15:39:56;;;;;;;19.62;9.73;;;;;;;11.66;100.00;98776.63;4063106;85;28560;-84
2022/12/24 15:45:57;;;;;;;17.02;9.70;;;;;;;11.83;100.00;98794.13;4116793;84;28543;-84
2022/12/24 15:52:04;;;;;;;26.10;10.40;;;;;;;11.94;100.00;98795.64;4014409;86;28548;-83
2022/12/24 15:58:22;;;;;;;20.57;9.65;;;;;;;11.85;100.00;98806.82;4187202;83;28554;-83
2022/12/24 16:04:26;;;;;;;19.02;10.08;;;;;;;11.85;100.00;98816.25;4148589;84;28584;-83
2022/12/24 16:10:29;;;;;;;21.65;9.45;;;;;;;11.89;100.00;98805.80;4205001;83;28534;-84
2022/12/24 16:16:33;;;;;;;19.55;9.38;;;;;;;12.05;100.00;98810.13;4181480;84;28530;-83
2022/12/24 16:22:35;;;;;;;17.23;8.30;;;;;;;12.22;100.00;98826.27;4176934;84;28546;-83
2022/12/24 16:28:36;;;;;;;18.30;8.23;;;;;;;11.93;100.00;98834.42;4181946;84;28509;-83
2022/12/24 16:34:40;;;;;;;19.15;8.30;;;;;;;12.34;100.00;98832.89;4165673;84;28566;-84
2022/12/24 16:40:41;;;;;;;16.12;8.35;;;;;;;12.42;100.00;98851.34;4158874;84;28509;-83
2022/12/24 16:46:42;;;;;;;18.10;8.73;;;;;;;12.04;100.00;98857.00;4162470;84;28526;-83
2022/12/24 16:52:43;;;;;;;18.42;9.03;;;;;;;12.09;100.00;98854.37;4166132;83;28552;-83
2022/12/24 16:58:44;;;;;;;23.50;9.78;;;;;;;12.03;100.00;98870.16;4184288;84;28548;-83
2022/12/24 17:04:47;;;;;;;20.40;10.45;;;;;;;11.98;100.00;98877.08;4189216;84;28571;-83
2022/12/24 17:10:51;;;;;;;25.85;14.87;;;;;;;12.23;100.00;98888.00;4192777;83;28532;-83
2022/12/24 17:16:53;;;;;;;20.85;8.15;;;;;;;12.49;100.00;98902.40;4209618;83;28543;-83
2022/12/24 17:22:54;;;;;;;17.07;7.65;;;;;;;12.54;100.00;98906.53;4182828;83;28525;-83
2022/12/24 17:28:55;;;;;;;19.57;9.28;;;;;;;12.48;100.00;98912.91;4181983;84;28606;-84
2022/12/24 17:34:58;;;;;;;18.77;9.58;;;;;;;12.34;100.00;98915.94;4185743;84;28542;-84
2022/12/24 17:41:06;;;;;;;22.32;10.13;;;;;;;12.09;100.00;98915.83;4192282;84;28497;-84
2022/12/24 17:47:07;;;;;;;17.92;8.50;;;;;;;11.95;100.00;98930.62;4179913;83;28563;-84
2022/12/24 17:53:08;;;;;;;18.82;9.03;;;;;;;11.73;100.00;98937.25;4129851;84;28656;-75
2022/12/24 17:59:09;;;;;;;17.67;9.70;;;;;;;11.77;100.00;98936.53;4173416;83;28586;-76
2022/12/24 18:05:11;;;;;;;14.90;7.37;;;;;;;11.57;100.00;98943.69;4141424;83;28547;-76
2022/12/24 18:11:14;;;;;;;13.40;6.67;;;;;;;11.31;100.00;98952.61;4150822;84;28518;-77
2022/12/24 18:17:15;;;;;;;15.90;8.00;;;;;;;11.04;100.00;98961.19;4177852;83;28581;-76
2022/12/24 18:23:16;;;;;;;15.05;8.00;;;;;;;10.99;100.00;98963.25;4169637;84;28546;-76
2022/12/24 18:29:17;;;;;;;18.05;8.78;;;;;;;10.97;100.00;98969.91;4151885;84;28570;-74
2022/12/24 18:35:20;;;;;;;19.45;9.45;;;;;;;10.83;100.00;98977.39;4178506;84;28629;-79
2022/12/24 18:41:24;;;;;;;25.30;11.18;;;;;;;11.34;100.00;98988.47;4160489;84;28573;-79
2022/12/24 18:47:25;;;;;;;27.13;11.83;;;;;;;10.86;100.00;98995.23;4168845;83;28539;-79
2022/12/24 18:53:26;;;;;;;24.55;13.00;;;;;;;10.98;100.00;98995.75;4149270;84;28525;-78
2022/12/24 18:59:27;;;;;;;22.67;10.82;;;;;;;10.84;100.00;99010.79;4180802;84;28530;-82
2022/12/24 19:05:29;;;;;;;25.27;10.55;;;;;;;10.60;100.00;99021.53;4136383;84;28589;-79
2022/12/24 19:13:09;;;;;;;19.30;9.13;;;;;;;10.56;100.00;99021.69;4140846;84;28581;-71
2022/12/24 19:19:29;;;;;;;17.40;8.60;;;;;;;10.56;100.00;99021.69;4138071;84;28508;-76
2022/12/24 19:25:31;;;;;;;15.90;8.18;;;;;;;10.56;100.00;99021.69;4135840;84;28571;-74
2022/12/24 19:31:32;;;;;;;19.02;8.48;;;;;;;10.48;100.00;99046.23;4136087;84;28523;-74
2022/12/24 19:37:33;;;;;;;20.75;8.93;;;;;;;10.54;100.00;99057.94;4151516;83;28592;-79
2022/12/24 19:43:43;;;;;;;18.98;8.73;;;;;;;10.38;100.00;99074.16;4158423;84;28498;-79
2022/12/24 19:49:44;;;;;;;18.57;9.43;;;;;;;10.68;100.00;99084.09;4152138;83;28525;-74
2022/12/24 19:55:45;;;;;;;21.10;9.33;;;;;;;10.70;100.00;99090.06;4162655;84;28534;-79
2022/12/24 20:01:46;;;;;;;22.62;9.05;;;;;;;10.68;100.00;99090.28;4174920;84;28534;-76
2022/12/24 20:07:47;;;;;;;20.10;8.58;;;;;;;11.19;100.00;99103.33;4154692;84;28507;-76
2022/12/24 20:13:48;;;;;;;17.15;8.90;;;;;;;11.04;99.99;99107.82;4144841;84;28525;-78
2022/12/24 20:19:50;;;;;;;21.55;9.20;;;;;;;11.03;99.27;99112.91;4155837;84;28588;-79
2022/12/24 20:25:59;;;;;;;19.55;9.00;;;;;;;10.97;99.31;99113.83;4177666;83;28512;-77
2022/12/24 20:32:05;;;;;;;18.90;9.53;;;;;;;11.11;98.66;99114.43;4192366;83;28580;-72
2022/12/24 20:38:06;;;;;;;20.68;10.00;;;;;;;11.17;98.15;99124.28;4165723;83;28501;-73
2022/12/24 20:44:09;;;;;;;22.10;10.43;;;;;;;11.01;98.27;99115.82;4176802;83;29126;-73
2022/12/24 20:50:10;;;;;;;24.15;10.68;;;;;;;11.29;97.03;99113.50;4172928;84;28611;-74
2022/12/24 20:56:16;;;;;;;24.18;11.00;;;;;;;11.19;96.91;99119.98;4134315;84;28533;-73
2022/12/24 21:02:17;;;;;;;24.35;9.90;;;;;;;11.40;96.02;99127.52;4162835;84;28490;-73
2022/12/24 21:08:21;;;;;;;22.13;9.60;;;;;;;11.15;97.79;99120.46;4158041;84;28525;-73
2022/12/24 21:14:25;;;;;;;18.77;10.08;;;;;;;10.88;98.90;99118.73;4156905;84;28529;-73
2022/12/24 21:20:30;;;;;;;20.43;9.75;;;;;;;10.62;99.51;99136.92;4170227;84;28629;-72
2022/12/24 21:26:32;;;;;;;22.45;10.93;;;;;;;10.46;100.00;99140.53;4123958;84;28561;-73
2022/12/24 21:32:34;;;;;;;22.35;10.60;;;;;;;10.26;100.00;99140.78;4135266;83;28612;-73
2022/12/24 21:38:35;;;;;;;25.00;10.38;;;;;;;10.33;100.00;99144.72;4156418;83;28651;-72
2022/12/24 21:44:36;;;;;;;21.50;10.48;;;;;;;10.55;100.00;99149.09;4167900;83;28460;-73
2022/12/24 21:50:56;;;;;;;20.30;9.48;;;;;;;10.70;100.00;99145.98;4182791;84;28574;-72
2022/12/24 22:03:20;;;;;;;22.70;10.38;;;;;;;10.72;100.00;99172.12;4164000;84;28553;-72
2022/12/24 22:15:43;;;;;;;20.80;10.25;;;;;;;10.64;99.05;99168.43;4160959;84;28534;-72
2022/12/24 22:21:44;;;;;;;22.37;11.60;;;;;;;10.76;97.52;99181.89;4145034;84;28528;-72
2022/12/24 22:27:46;;;;;;;25.75;12.07;;;;;;;10.90;97.75;99185.22;4161910;84;28548;-73
2022/12/24 22:33:47;;;;;;;24.72;10.28;;;;;;;11.19;95.63;99188.61;4152503;84;28577;-73
2022/12/24 22:39:48;;;;;;;27.70;11.48;;;;;;;10.83;94.87;99193.39;4160294;84;28556;-72
2022/12/24 22:45:49;;;;;;;22.20;10.90;;;;;;;11.14;95.25;99193.34;4176890;82;28589;-72
2022/12/24 22:51:51;;;;;;;22.00;11.22;;;;;;;10.83;94.85;99198.77;4173010;84;28572;-71
2022/12/24 22:57:52;;;;;;;23.55;11.00;;;;;;;10.78;95.91;99195.96;4165982;84;28539;-73
2022/12/24 23:03:53;;;;;;;26.27;11.18;;;;;;;10.87;96.27;99196.45;4151107;84;28579;-73
2022/12/24 23:09:55;;;;;;;25.40;10.65;;;;;;;11.04;94.78;99196.61;4122513;84;28544;-72
2022/12/24 23:16:01;;;;;;;34.25;11.33;;;;;;;11.00;93.89;99192.20;4126159;84;28540;-72
2022/12/24 23:22:04;;;;;;;24.32;10.85;;;;;;;10.97;93.44;99199.40;4122570;83;28543;-73
2022/12/24 23:28:05;;;;;;;24.18;11.20;;;;;;;11.02;93.96;99208.93;4142103;83;28543;-72
2022/12/24 23:34:06;;;;;;;24.32;10.93;;;;;;;10.93;94.96;99221.06;4148465;83;28545;-72
2022/12/24 23:40:08;;;;;;;28.25;11.83;;;;;;;11.04;93.25;99225.37;4167320;83;28544;-72
2022/12/24 23:46:15;;;;;;;25.23;11.60;;;;;;;11.03;93.60;99231.29;4183792;83;28518;-73
2022/12/24 23:52:16;;;;;;;28.95;11.53;;;;;;;11.13;93.14;99228.86;4179146;84;28526;-73
2022/12/24 23:58:17;;;;;;;26.62;11.03;;;;;;;10.84;94.13;99241.29;4197740;82;28600;-73
